Time;durP1;ratioP1;P1;durP2;ratioP2;P2;SDS_P1;SDS_P2;PMS_P1;PMS_P2;Temp;Humidity;BMP_temperature;BMP_pressure;BME280_temperature;BME280_humidity;BME280_pressure;Samples;Min_cycle;Max_cycle;Signal;HPM_P1;HPM_P2
2023/05/18 00:00:52;;;;;;;7.77;4.80;;;;;;;7.86;100.00;98750.69;5115408;28;20207;-77
2023/05/18 00:03:19;;;;;;;9.70;5.17;;;;;;;7.86;100.00;98745.38;5115808;28;20215;-76
2023/05/18 00:05:46;;;;;;;8.97;5.27;;;;;;;7.93;100.00;98746.31;5115256;28;20230;-76
2023/05/18 00:08:12;;;;;;;8.23;5.67;;;;;;;7.87;100.00;98735.63;5114875;28;20207;-76
2023/05/18 00:10:38;;;;;;;9.50;5.60;;;;;;;7.81;100.00;98734.53;5114731;28;20207;-77
2023/05/18 00:13:07;;;;;;;7.47;5.67;;;;;;;7.76;100.00;98730.78;5114070;28;20298;-77
2023/05/18 00:15:33;;;;;;;10.43;6.00;;;;;;;7.66;100.00;98720.50;5115339;28;20272;-77
2023/05/18 00:18:00;;;;;;;10.17;6.17;;;;;;;7.73;100.00;98720.56;5114997;28;20274;-77
2023/05/18 00:20:28;;;;;;;10.50;6.03;;;;;;;7.88;100.00;98729.31;5114860;28;20230;-76
2023/05/18 00:22:54;;;;;;;9.17;5.80;;;;;;;7.94;100.00;98717.97;5114479;28;20555;-76
2023/05/18 00:25:21;;;;;;;8.00;5.23;;;;;;;7.98;100.00;98720.09;5114675;28;20219;-76
2023/05/18 00:27:48;;;;;;;9.20;5.80;;;;;;;7.88;100.00;98721.38;5114792;28;20208;-77
2023/05/18 00:30:15;;;;;;;7.67;5.00;;;;;;;7.93;100.00;98726.94;5114451;28;20319;-76
2023/05/18 00:32:41;;;;;;;7.30;5.50;;;;;;;7.75;100.00;98721.22;5114297;28;20230;-76
2023/05/18 00:35:08;;;;;;;6.10;4.93;;;;;;;7.68;100.00;98715.00;5114222;28;20691;-76
2023/05/18 00:37:34;;;;;;;10.83;5.50;;;;;;;7.64;100.00;98721.72;5114500;28;20214;-77
2023/05/18 00:40:00;;;;;;;8.07;5.03;;;;;;;7.51;100.00;98719.69;5114258;28;20564;-77
2023/05/18 00:42:27;;;;;;;7.67;5.03;;;;;;;7.49;100.00;98719.06;5114485;28;20203;-77
2023/05/18 00:44:53;;;;;;;8.67;4.90;;;;;;;7.39;100.00;98720.34;5114497;28;20234;-77
2023/05/18 00:47:20;;;;;;;9.53;5.23;;;;;;;7.45;100.00;98719.59;5114374;28;20227;-77
2023/05/18 00:49:46;;;;;;;9.87;5.67;;;;;;;7.37;100.00;98719.72;5114620;28;20204;-76
2023/05/18 00:52:13;;;;;;;7.73;5.50;;;;;;;7.34;100.00;98726.16;5114503;28;20223;-76
2023/05/18 00:54:39;;;;;;;6.77;5.20;;;;;;;7.37;100.00;98725.81;5114641;28;20215;-76
2023/05/18 00:57:06;;;;;;;9.90;5.43;;;;;;;7.41;100.00;98720.97;5114553;28;20219;-76
2023/05/18 00:59:33;;;;;;;6.97;5.20;;;;;;;7.47;100.00;98713.13;5114291;28;20199;-76
2023/05/18 01:02:00;;;;;;;7.27;4.57;;;;;;;7.47;100.00;98715.75;5114171;28;20207;-76
2023/05/18 01:04:30;;;;;;;5.40;4.90;;;;;;;7.45;100.00;98716.94;5114179;28;20199;-76
2023/05/18 01:06:57;;;;;;;7.47;5.30;;;;;;;7.52;100.00;98720.50;5113744;28;20223;-76
2023/05/18 01:09:24;;;;;;;7.30;4.63;;;;;;;7.40;100.00;98714.88;5113881;28;20293;-76
2023/05/18 01:12:17;;;;;;;7.47;4.90;;;;;;;7.36;100.00;98724.16;5113762;28;20251;-76
2023/05/18 01:14:54;;;;;;;6.53;4.80;;;;;;;7.37;100.00;98717.06;5114038;28;20198;-76
2023/05/18 01:17:23;;;;;;;8.40;5.63;;;;;;;7.32;100.00;98722.88;5113927;28;20254;-76
2023/05/18 01:20:23;;;;;;;7.57;5.10;;;;;;;7.27;100.00;98719.13;5114003;28;20218;-76
2023/05/18 01:23:02;;;;;;;8.07;5.27;;;;;;;7.32;100.00;98711.47;5080306;28;20207;-76
2023/05/18 01:25:39;;;;;;;6.50;4.97;;;;;;;7.30;100.00;98709.03;5118247;28;20229;-77
2023/05/18 01:28:15;;;;;;;9.67;5.17;;;;;;;7.22;100.00;98716.22;5118374;28;20193;-77
2023/05/18 01:30:42;;;;;;;7.03;5.30;;;;;;;7.24;100.00;98719.53;5101251;28;20194;-77
2023/05/18 01:33:09;;;;;;;8.63;5.67;;;;;;;7.22;100.00;98716.22;5118010;28;20223;-77
2023/05/18 01:35:37;;;;;;;8.50;5.37;;;;;;;7.20;100.00;98720.88;5118064;28;20583;-77
2023/05/18 01:38:04;;;;;;;9.60;5.10;;;;;;;7.13;100.00;98719.94;5118074;28;20202;-77
2023/05/18 01:40:35;;;;;;;7.77;5.17;;;;;;;7.11;100.00;98716.69;5118612;28;20219;-76
2023/05/18 01:43:11;;;;;;;7.40;5.40;;;;;;;6.96;100.00;98713.19;5118030;28;20190;-76
2023/05/18 01:45:41;;;;;;;8.47;4.90;;;;;;;6.96;100.00;98721.09;5118480;28;20218;-76
2023/05/18 01:48:11;;;;;;;6.50;4.80;;;;;;;6.95;100.00;98714.19;5117814;28;20630;-76
2023/05/18 01:50:46;;;;;;;8.13;5.03;;;;;;;6.86;100.00;98717.91;5118051;28;20207;-76
2023/05/18 01:53:19;;;;;;;8.17;5.20;;;;;;;6.86;100.00;98709.97;5117661;28;20695;-76
2023/05/18 01:55:48;;;;;;;7.37;4.93;;;;;;;7.00;100.00;98711.81;5117951;28;20280;-76
2023/05/18 01:58:16;;;;;;;7.67;5.37;;;;;;;6.89;100.00;98714.91;5118026;28;20203;-76
2023/05/18 02:00:43;;;;;;;5.47;4.80;;;;;;;6.76;100.00;98714.69;5117938;28;20202;-76
2023/05/18 02:03:12;;;;;;;8.67;5.00;;;;;;;6.65;100.00;98713.31;5117613;28;20673;-77
2023/05/18 02:05:39;;;;;;;8.47;5.17;;;;;;;6.68;100.00;98706.84;5117388;28;20709;-76
2023/05/18 02:08:06;;;;;;;8.83;5.50;;;;;;;6.70;100.00;98697.72;5117384;28;20557;-76
2023/05/18 02:10:32;;;;;;;8.13;4.90;;;;;;;6.73;100.00;98704.47;5117798;28;20203;-76
2023/05/18 02:12:58;;;;;;;6.53;4.87;;;;;;;6.58;100.00;98706.28;5117488;28;20219;-77
2023/05/18 02:15:25;;;;;;;8.27;5.10;;;;;;;6.51;100.00;98705.34;5117145;28;20223;-76
2023/05/18 02:17:51;;;;;;;10.93;5.67;;;;;;;6.58;100.00;98711.56;5117605;28;20294;-77
2023/05/18 02:20:17;;;;;;;6.83;5.30;;;;;;;6.71;100.00;98701.22;5117385;28;20217;-76
2023/05/18 02:22:44;;;;;;;7.20;5.17;;;;;;;6.63;100.00;98696.81;5117401;28;20272;-76
2023/05/18 02:25:11;;;;;;;7.93;5.07;;;;;;;6.58;100.00;98699.19;5117376;28;20226;-76
2023/05/18 02:27:37;;;;;;;5.63;4.83;;;;;;;6.48;100.00;98697.78;5117015;28;20576;-76
2023/05/18 02:30:07;;;;;;;6.97;5.20;;;;;;;6.51;100.00;98700.06;5117297;28;20203;-76
2023/05/18 02:32:37;;;;;;;8.43;5.13;;;;;;;6.48;100.00;98695.97;5117176;28;20230;-76
2023/05/18 02:35:07;;;;;;;8.30;5.27;;;;;;;6.52;100.00;98699.06;5116516;28;20192;-76
2023/05/18 02:37:38;;;;;;;8.60;5.53;;;;;;;6.45;100.00;98704.22;5117200;28;20203;-76
2023/05/18 02:40:14;;;;;;;8.17;5.40;;;;;;;6.53;100.00;98698.06;5116824;28;20198;-76
2023/05/18 02:42:41;;;;;;;7.67;5.40;;;;;;;6.51;100.00;98692.16;5116898;28;20193;-76
2023/05/18 02:45:08;;;;;;;9.67;5.53;;;;;;;6.46;100.00;98697.94;5116814;28;20666;-76
2023/05/18 02:47:35;;;;;;;6.40;4.90;;;;;;;6.61;100.00;98684.78;5117035;28;20215;-76
2023/05/18 02:50:01;;;;;;;6.20;5.23;;;;;;;6.38;100.00;98692.72;5116938;28;20556;-76
2023/05/18 02:52:28;;;;;;;6.47;5.03;;;;;;;6.31;100.00;98693.59;5116669;28;20219;-76
2023/05/18 02:54:54;;;;;;;7.70;5.40;;;;;;;6.33;100.00;98683.72;5116819;28;20244;-76
2023/05/18 02:57:21;;;;;;;9.43;5.43;;;;;;;6.45;100.00;98680.47;5116631;28;20231;-76
2023/05/18 02:59:48;;;;;;;5.80;5.20;;;;;;;6.35;100.00;98679.06;5116706;28;20203;-76
2023/05/18 03:02:15;;;;;;;9.00;5.60;;;;;;;6.13;100.00;98675.44;5116236;28;20199;-77
2023/05/18 03:04:41;;;;;;;11.80;5.73;;;;;;;6.24;100.00;98684.75;5116106;28;20301;-76
2023/05/18 03:07:09;;;;;;;8.07;5.20;;;;;;;6.27;100.00;98687.03;5115748;28;20586;-76
2023/05/18 03:09:35;;;;;;;6.57;5.60;;;;;;;6.29;100.00;98682.41;5116271;28;20203;-76
2023/05/18 03:12:02;;;;;;;10.33;5.90;;;;;;;6.30;100.00;98686.69;5116161;28;20230;-76
2023/05/18 03:14:28;;;;;;;9.50;5.60;;;;;;;6.33;100.00;98691.63;5115854;28;20203;-76
2023/05/18 03:16:56;;;;;;;6.97;5.10;;;;;;;6.13;100.00;98687.78;5115815;28;20234;-77
2023/05/18 03:19:23;;;;;;;8.50;5.77;;;;;;;6.20;100.00;98681.63;5115684;28;20572;-77
2023/05/18 03:21:49;;;;;;;8.97;6.03;;;;;;;6.36;100.00;98685.97;5116021;28;20203;-76
2023/05/18 03:24:16;;;;;;;8.83;6.43;;;;;;;6.26;100.00;98688.03;5116219;28;20203;-76
2023/05/18 03:26:43;;;;;;;11.47;6.20;;;;;;;6.27;100.00;98692.31;5116073;28;20227;-76
2023/05/18 03:29:10;;;;;;;9.40;5.63;;;;;;;6.22;100.00;98687.56;5116170;28;20259;-76
2023/05/18 03:31:36;;;;;;;7.93;5.90;;;;;;;6.28;100.00;98683.38;5115784;28;20203;-76
2023/05/18 03:34:02;;;;;;;8.13;5.53;;;;;;;6.22;100.00;98684.94;5115407;28;20563;-76
2023/05/18 03:36:29;;;;;;;7.07;5.63;;;;;;;6.19;100.00;98687.13;5115616;28;20223;-76
2023/05/18 03:38:55;;;;;;;7.57;6.00;;;;;;;6.18;100.00;98688.09;5115644;28;20203;-76
2023/05/18 03:41:22;;;;;;;7.93;5.93;;;;;;;6.19;100.00;98679.19;5115285;28;20564;-76
2023/05/18 03:43:48;;;;;;;7.53;5.57;;;;;;;6.02;100.00;98688.22;5115530;28;20195;-76
2023/05/18 03:46:14;;;;;;;8.00;5.43;;;;;;;5.98;100.00;98689.56;5115000;28;20229;-77
2023/05/18 03:48:41;;;;;;;7.90;5.47;;;;;;;5.95;100.00;98681.97;5114683;28;20242;-76
2023/05/18 03:51:07;;;;;;;6.63;5.67;;;;;;;5.89;100.00;98687.97;5115509;28;20687;-76
2023/05/18 03:53:35;;;;;;;8.67;6.13;;;;;;;5.95;100.00;98687.25;5116527;28;20227;-76
2023/05/18 03:56:01;;;;;;;7.07;5.40;;;;;;;6.04;100.00;98689.69;5115644;28;20313;-76
2023/05/18 03:58:28;;;;;;;8.27;5.53;;;;;;;5.94;100.00;98689.09;5115793;28;20203;-76
2023/05/18 04:00:55;;;;;;;6.90;5.47;;;;;;;5.98;100.00;98697.47;5115562;28;20260;-76
2023/05/18 04:03:23;;;;;;;8.03;5.20;;;;;;;6.00;100.00;98709.50;5115271;28;20206;-76
2023/05/18 04:05:50;;;;;;;7.73;5.20;;;;;;;5.93;100.00;98699.81;5115098;28;20219;-76
2023/05/18 04:08:16;;;;;;;9.97;5.93;;;;;;;5.83;100.00;98704.50;5115153;28;20203;-76
2023/05/18 04:10:44;;;;;;;8.23;5.70;;;;;;;5.87;100.00;98703.97;5114831;28;20681;-76
2023/05/18 04:13:10;;;;;;;8.23;5.33;;;;;;;5.84;100.00;98708.78;5114949;28;20231;-76
2023/05/18 04:15:37;;;;;;;7.83;6.00;;;;;;;5.83;100.00;98715.06;5114483;28;20713;-77
2023/05/18 04:18:04;;;;;;;9.03;5.80;;;;;;;5.88;100.00;98713.50;5115059;28;20188;-77
2023/05/18 04:20:30;;;;;;;9.77;5.70;;;;;;;6.00;100.00;98724.50;5114592;28;20214;-76
2023/05/18 04:22:57;;;;;;;9.20;5.50;;;;;;;6.08;100.00;98716.53;5114865;28;20196;-77
2023/05/18 04:25:26;;;;;;;9.00;5.60;;;;;;;6.19;100.00;98721.44;5114744;28;20223;-76
2023/05/18 04:27:54;;;;;;;8.53;5.90;;;;;;;6.22;100.00;98721.06;5114429;28;20662;-77
2023/05/18 04:30:22;;;;;;;9.97;6.77;;;;;;;6.30;100.00;98718.38;5114476;28;20727;-76
2023/05/18 04:32:49;;;;;;;9.00;5.60;;;;;;;6.44;100.00;98723.72;5114671;28;20272;-76
2023/05/18 04:35:15;;;;;;;7.00;5.50;;;;;;;6.27;100.00;98729.28;5114286;28;20681;-76
2023/05/18 04:37:42;;;;;;;7.33;5.90;;;;;;;6.23;100.00;98726.19;5114587;28;20209;-77
2023/05/18 04:40:12;;;;;;;10.27;5.73;;;;;;;6.34;100.00;98730.22;5114266;28;20203;-76
2023/05/18 04:42:43;;;;;;;11.27;6.27;;;;;;;6.41;100.00;98728.50;5114571;28;20210;-76
2023/05/18 04:45:20;;;;;;;6.57;5.13;;;;;;;6.43;100.00;98729.19;5114459;28;20199;-76
2023/05/18 04:47:52;;;;;;;6.67;5.60;;;;;;;6.46;100.00;98734.09;5114136;28;20631;-76
2023/05/18 04:50:19;;;;;;;9.43;5.37;;;;;;;6.78;100.00;98736.50;5114707;28;20188;-76
2023/05/18 04:52:47;;;;;;;6.63;5.33;;;;;;;6.75;100.00;98731.56;5114104;28;20635;-76
2023/05/18 04:55:24;;;;;;;7.70;5.27;;;;;;;6.91;100.00;98736.69;5114459;28;20606;-76
2023/05/18 04:57:52;;;;;;;8.97;5.07;;;;;;;6.80;100.00;98731.84;5114313;28;20202;-77
2023/05/18 05:00:19;;;;;;;9.60;4.97;;;;;;;7.71;100.00;98733.19;5114032;28;20614;-76
2023/05/18 05:02:46;;;;;;;7.30;4.83;;;;;;;7.82;100.00;98740.63;5114239;28;20199;-76
2023/05/18 05:05:12;;;;;;;7.63;4.93;;;;;;;8.49;100.00;98745.53;5114058;28;20206;-76
2023/05/18 05:07:38;;;;;;;8.07;4.30;;;;;;;8.20;100.00;98737.66;5114152;28;20205;-77
2023/05/18 05:10:05;;;;;;;7.90;4.00;;;;;;;8.67;98.99;98737.94;5114170;28;20207;-76
2023/05/18 05:12:32;;;;;;;5.60;4.33;;;;;;;8.18;100.00;98736.19;5114014;28;20230;-77
2023/05/18 05:14:58;;;;;;;6.83;4.17;;;;;;;8.23;100.00;98744.44;5113686;28;20635;-77
2023/05/18 05:17:25;;;;;;;9.73;4.80;;;;;;;8.24;100.00;98743.44;5113626;28;20211;-77
2023/05/18 05:19:51;;;;;;;6.77;5.20;;;;;;;7.95;100.00;98746.09;5113945;28;20284;-77
2023/05/18 05:22:18;;;;;;;8.63;4.43;;;;;;;7.95;100.00;98741.63;5113903;28;20199;-76
2023/05/18 05:24:45;;;;;;;9.60;4.37;;;;;;;7.61;100.00;98736.09;5113945;28;20252;-77
2023/05/18 05:27:11;;;;;;;5.57;4.43;;;;;;;7.71;100.00;98735.81;5113899;28;20230;-77
2023/05/18 05:29:37;;;;;;;8.97;4.77;;;;;;;8.04;100.00;98742.34;5113608;28;20207;-76
2023/05/18 05:32:04;;;;;;;6.97;4.03;;;;;;;8.28;100.00;98742.84;5113603;28;20670;-77
2023/05/18 05:34:31;;;;;;;9.23;4.57;;;;;;;7.63;100.00;98739.41;5114401;28;20199;-76
2023/05/18 05:36:57;;;;;;;9.90;4.53;;;;;;;7.80;100.00;98740.00;5113446;28;20223;-76
2023/05/18 05:39:23;;;;;;;5.93;4.10;;;;;;;8.11;100.00;98746.69;5113808;28;20207;-76
2023/05/18 05:41:50;;;;;;;10.13;4.27;;;;;;;7.83;100.00;98750.25;5113749;28;20203;-77
2023/05/18 05:44:16;;;;;;;9.60;3.63;;;;;;;7.79;99.86;98744.47;5113453;28;20711;-77
2023/05/18 05:46:43;;;;;;;10.13;3.50;;;;;;;7.69;99.89;98745.78;5113562;28;20247;-77
2023/05/18 05:49:09;;;;;;;6.93;3.50;;;;;;;8.00;100.00;98754.31;5113825;28;20213;-76
2023/05/18 05:51:35;;;;;;;7.90;3.63;;;;;;;8.11;100.00;98751.19;5114014;28;20214;-76
2023/05/18 05:54:02;;;;;;;5.30;3.70;;;;;;;8.24;100.00;98738.94;5113686;28;20233;-76
2023/05/18 05:56:29;;;;;;;10.00;3.90;;;;;;;8.35;99.38;98743.75;5113589;28;20714;-76
2023/05/18 05:58:55;;;;;;;8.17;3.73;;;;;;;8.40;98.29;98748.47;5113588;28;20684;-77
2023/05/18 06:01:22;;;;;;;5.63;3.43;;;;;;;8.75;97.84;98750.25;5113788;28;20248;-77
2023/05/18 06:03:48;;;;;;;8.47;3.43;;;;;;;8.83;95.02;98747.47;5113241;28;20685;-77
2023/05/18 06:06:15;;;;;;;8.80;3.20;;;;;;;9.02;94.46;98752.94;5113525;28;20276;-77
2023/05/18 06:08:41;;;;;;;6.93;2.97;;;;;;;9.01;93.88;98745.19;5113467;28;20294;-77
2023/05/18 06:11:08;;;;;;;8.27;3.70;;;;;;;9.11;94.22;98743.00;5115485;28;20684;-76
2023/05/18 06:13:34;;;;;;;8.23;3.33;;;;;;;9.17;92.29;98745.69;5117093;28;20216;-77
2023/05/18 06:16:01;;;;;;;6.87;3.33;;;;;;;9.35;92.96;98745.19;5116910;28;20736;-77
2023/05/18 06:18:27;;;;;;;5.50;3.23;;;;;;;9.42;92.87;98748.72;5117032;28;20653;-77
2023/05/18 06:20:53;;;;;;;9.17;3.30;;;;;;;9.46;94.03;98745.47;5117139;28;20593;-77
2023/05/18 06:23:21;;;;;;;6.33;3.17;;;;;;;9.44;90.82;98746.69;5117114;28;20202;-76
2023/05/18 06:25:48;;;;;;;6.20;3.33;;;;;;;9.55;92.98;98746.97;5117042;28;20228;-77
2023/05/18 06:28:15;;;;;;;6.53;3.23;;;;;;;9.80;90.92;98747.31;5117074;28;20207;-77
2023/05/18 06:30:41;;;;;;;5.37;3.10;;;;;;;9.76;92.36;98746.88;5116998;28;20229;-77
2023/05/18 06:33:08;;;;;;;10.70;3.20;;;;;;;9.86;90.28;98752.66;5116529;28;20219;-77
2023/05/18 06:35:34;;;;;;;7.30;3.17;;;;;;;9.73;92.20;98743.81;5116800;28;20227;-77
2023/05/18 06:38:01;;;;;;;6.37;2.90;;;;;;;9.85;91.74;98744.88;5116929;28;20574;-77
2023/05/18 06:40:27;;;;;;;9.30;3.03;;;;;;;10.08;88.54;98742.75;5116486;28;20562;-77
2023/05/18 06:42:54;;;;;;;7.93;3.30;;;;;;;10.10;89.92;98746.03;5116793;28;20231;-76
2023/05/18 06:45:20;;;;;;;7.63;3.27;;;;;;;10.15;89.09;98744.44;5116694;28;20296;-77
2023/05/18 06:47:47;;;;;;;9.23;3.17;;;;;;;10.11;88.39;98743.19;5116736;28;20219;-77
2023/05/18 06:50:13;;;;;;;5.57;2.70;;;;;;;10.27;89.16;98744.69;5117031;28;20207;-77
2023/05/18 06:52:40;;;;;;;5.37;3.03;;;;;;;10.41;89.60;98747.16;5116870;28;20203;-77
2023/05/18 06:55:07;;;;;;;5.13;2.80;;;;;;;10.42;87.68;98743.47;5116758;28;20198;-77
2023/05/18 06:57:34;;;;;;;6.23;2.90;;;;;;;10.30;89.21;98745.09;5116932;28;20199;-77
2023/05/18 07:00:00;;;;;;;6.87;3.37;;;;;;;10.53;87.70;98744.72;5101335;28;20207;-77
2023/05/18 07:02:27;;;;;;;7.63;2.97;;;;;;;10.54;83.24;98749.84;5095771;28;20685;-77
2023/05/18 07:04:53;;;;;;;4.27;2.40;;;;;;;10.51;85.91;98754.75;5095719;28;20689;-77
2023/05/18 07:07:20;;;;;;;8.47;3.00;;;;;;;10.06;88.55;98750.09;5095526;28;20728;-77
2023/05/18 07:09:48;;;;;;;8.77;3.20;;;;;;;10.34;85.46;98750.81;5095856;28;20207;-77
2023/05/18 07:12:15;;;;;;;10.20;3.27;;;;;;;10.48;88.79;98757.78;5095916;28;20208;-77
2023/05/18 07:14:41;;;;;;;5.47;3.20;;;;;;;10.65;84.06;98749.25;5095754;28;20223;-77
2023/05/18 07:17:08;;;;;;;8.80;3.13;;;;;;;10.82;84.88;98755.00;5095180;28;20237;-77
2023/05/18 07:19:34;;;;;;;9.83;3.63;;;;;;;10.62;83.57;98748.81;5096436;28;20210;-77
2023/05/18 07:22:02;;;;;;;5.93;3.00;;;;;;;10.87;88.24;98748.03;5095029;28;20732;-77
2023/05/18 07:24:29;;;;;;;9.33;3.20;;;;;;;11.05;81.33;98755.41;5095222;28;20720;-77
2023/05/18 07:26:55;;;;;;;7.93;3.13;;;;;;;11.18;83.05;98751.94;5095523;28;20274;-77
2023/05/18 07:29:22;;;;;;;7.63;3.33;;;;;;;11.16;84.15;98749.47;5095618;28;20199;-77
2023/05/18 07:31:48;;;;;;;6.57;3.00;;;;;;;11.28;81.34;98740.66;5095404;28;20206;-77
2023/05/18 07:34:14;;;;;;;5.63;2.90;;;;;;;11.43;80.81;98740.44;5095215;28;20227;-77
2023/05/18 07:36:41;;;;;;;7.47;3.17;;;;;;;11.45;79.57;98743.72;5095184;28;20220;-77
2023/05/18 07:39:07;;;;;;;12.97;3.77;;;;;;;11.57;83.83;98736.72;5095357;28;20211;-77
2023/05/18 07:41:35;;;;;;;7.20;3.17;;;;;;;11.89;81.95;98737.69;5095226;28;20631;-77
2023/05/18 07:44:01;;;;;;;9.43;3.23;;;;;;;11.96;80.35;98733.97;5095154;28;20196;-77
2023/05/18 07:46:27;;;;;;;6.27;3.10;;;;;;;12.07;83.41;98741.28;5095443;28;20323;-77
2023/05/18 07:48:54;;;;;;;8.33;3.03;;;;;;;12.11;79.46;98729.19;5095452;28;20569;-77
2023/05/18 07:51:20;;;;;;;5.77;3.10;;;;;;;12.26;79.51;98734.25;5095888;28;20200;-77
2023/05/18 07:53:47;;;;;;;6.03;3.40;;;;;;;12.31;79.17;98732.56;5095787;28;20232;-77
2023/05/18 07:56:13;;;;;;;7.93;3.67;;;;;;;12.40;80.19;98727.81;5094946;28;20266;-77
2023/05/18 07:58:40;;;;;;;7.77;3.00;;;;;;;12.64;78.25;98730.53;5095258;28;20259;-77
2023/05/18 08:01:06;;;;;;;9.10;3.37;;;;;;;12.70;78.83;98718.97;5094604;28;20678;-77
2023/05/18 08:03:33;;;;;;;11.80;3.57;;;;;;;12.55;76.40;98722.97;5094508;28;20215;-77
2023/05/18 08:05:59;;;;;;;4.57;2.70;;;;;;;12.87;76.62;98727.25;5094799;28;20230;-77
2023/05/18 08:08:26;;;;;;;6.47;2.97;;;;;;;12.84;76.89;98728.53;5094522;28;20548;-77
2023/05/18 08:10:52;;;;;;;8.40;3.33;;;;;;;12.90;75.40;98719.66;5094428;28;20693;-77
2023/05/18 08:13:19;;;;;;;4.43;2.50;;;;;;;13.05;77.65;98725.53;5094425;28;20280;-77
2023/05/18 08:15:45;;;;;;;7.90;3.43;;;;;;;13.29;73.74;98718.53;5094173;28;20242;-77
2023/05/18 08:18:12;;;;;;;8.17;3.23;;;;;;;13.09;74.19;98716.03;5094663;28;20186;-77
2023/05/18 08:20:38;;;;;;;8.20;3.60;;;;;;;13.30;76.29;98714.81;5094442;28;20207;-77
2023/05/18 08:23:05;;;;;;;6.37;3.40;;;;;;;13.63;74.87;98713.44;5094130;28;20295;-76
2023/05/18 08:25:31;;;;;;;6.60;2.87;;;;;;;13.63;71.26;98705.44;5094062;28;20230;-78
2023/05/18 08:27:58;;;;;;;6.20;3.17;;;;;;;13.60;69.76;98708.53;5094510;28;20203;-77
2023/05/18 08:30:25;;;;;;;9.30;3.10;;;;;;;13.71;70.23;98710.47;5094019;28;20221;-77
2023/05/18 08:32:51;;;;;;;8.87;3.23;;;;;;;13.51;66.18;98709.88;5093713;28;20213;-77
2023/05/18 08:35:18;;;;;;;8.30;3.27;;;;;;;13.66;66.86;98704.19;5094286;28;20234;-77
2023/05/18 08:37:45;;;;;;;8.80;3.10;;;;;;;13.78;64.70;98705.03;5094244;28;20200;-77
2023/05/18 08:40:12;;;;;;;6.77;3.27;;;;;;;13.92;69.17;98702.00;5094138;28;20245;-77
2023/05/18 08:43:06;;;;;;;7.17;2.83;;;;;;;13.91;67.75;98695.03;5093980;28;20204;-77
2023/05/18 08:45:40;;;;;;;6.60;3.17;;;;;;;14.00;69.75;98693.69;5093886;28;20243;-77
2023/05/18 08:48:07;;;;;;;8.97;3.37;;;;;;;14.31;64.50;98698.03;5094111;28;20197;-77
2023/05/18 08:50:35;;;;;;;8.30;3.10;;;;;;;14.57;63.35;98690.44;5093991;28;20203;-77
2023/05/18 08:53:05;;;;;;;7.83;2.93;;;;;;;14.60;61.39;98695.34;5094184;28;20243;-77
2023/05/18 08:55:35;;;;;;;8.23;2.93;;;;;;;14.95;63.36;98688.19;5094258;28;20223;-77
2023/05/18 08:58:03;;;;;;;10.10;2.90;;;;;;;14.82;58.59;98693.75;5094203;28;20226;-77
2023/05/18 09:00:29;;;;;;;9.33;2.80;;;;;;;15.00;62.39;98684.81;5094030;28;20207;-77
2023/05/18 09:02:56;;;;;;;7.60;3.03;;;;;;;15.15;59.32;98682.50;5093469;28;20570;-77
2023/05/18 09:05:23;;;;;;;8.27;2.77;;;;;;;15.07;61.58;98675.59;5093306;28;20238;-77
2023/05/18 09:07:54;;;;;;;6.27;3.13;;;;;;;15.15;61.49;98671.78;5093480;28;20667;-77
2023/05/18 09:10:22;;;;;;;6.67;3.20;;;;;;;15.34;61.69;98681.38;5093482;28;20195;-77
2023/05/18 09:12:50;;;;;;;6.77;2.90;;;;;;;15.29;59.52;98682.03;5093540;28;20210;-77
2023/05/18 09:15:17;;;;;;;10.13;3.10;;;;;;;15.20;62.13;98685.31;5092936;28;20834;-77
2023/05/18 09:17:43;;;;;;;6.40;2.60;;;;;;;14.73;61.93;98684.44;5093125;28;20214;-77
2023/05/18 09:20:10;;;;;;;5.73;2.97;;;;;;;14.55;60.41;98686.34;5093449;28;20208;-77
2023/05/18 09:22:39;;;;;;;9.57;3.63;;;;;;;14.06;60.31;98674.06;5093475;28;20226;-77
2023/05/18 09:25:08;;;;;;;7.60;3.20;;;;;;;14.27;58.52;98684.31;5093044;28;20731;-76
2023/05/18 09:27:34;;;;;;;7.70;3.30;;;;;;;14.18;57.50;98682.94;5093438;28;20208;-77
2023/05/18 09:30:00;;;;;;;6.13;3.20;;;;;;;14.30;60.55;98686.50;5093191;28;20204;-77
2023/05/18 09:32:27;;;;;;;8.10;3.37;;;;;;;14.44;58.80;98687.97;5093413;28;20226;-77
2023/05/18 09:34:54;;;;;;;6.33;3.20;;;;;;;14.45;56.75;98692.28;5076272;28;20238;-77
2023/05/18 09:37:21;;;;;;;6.93;2.83;;;;;;;14.50;57.13;98681.69;5093410;28;20230;-77
2023/05/18 09:39:58;;;;;;;5.63;3.10;;;;;;;14.63;58.59;98683.34;5093374;28;20206;-77
2023/05/18 09:42:36;;;;;;;8.97;3.40;;;;;;;15.00;56.27;98680.28;5093984;28;20188;-77
2023/05/18 09:45:22;;;;;;;5.50;3.30;;;;;;;14.98;55.57;98679.72;5093709;28;20188;-77
2023/05/18 09:47:52;;;;;;;5.73;3.00;;;;;;;14.83;56.38;98676.63;5097632;28;20191;-77
2023/05/18 09:50:25;;;;;;;8.57;3.63;;;;;;;15.34;57.36;98676.81;5097748;28;20204;-77
2023/05/18 09:52:51;;;;;;;7.37;3.00;;;;;;;15.81;53.90;98681.06;5097554;28;20257;-77
2023/05/18 09:55:19;;;;;;;7.57;3.30;;;;;;;15.99;53.56;98678.22;5097098;28;20239;-77
2023/05/18 09:57:47;;;;;;;5.50;3.17;;;;;;;15.79;54.01;98679.66;5097572;28;20660;-77
2023/05/18 10:00:15;;;;;;;6.13;2.80;;;;;;;15.63;53.36;98677.72;5097306;28;20204;-77
2023/05/18 10:02:47;;;;;;;9.87;2.87;;;;;;;15.78;55.52;98670.00;5097189;28;20251;-77
2023/05/18 10:05:23;;;;;;;7.53;3.33;;;;;;;15.69;52.15;98671.44;5097310;28;20647;-77
2023/05/18 10:07:54;;;;;;;7.63;3.13;;;;;;;15.95;52.41;98663.66;5097410;28;20302;-77
2023/05/18 10:10:22;;;;;;;7.87;3.23;;;;;;;16.04;50.08;98661.41;5097282;28;20192;-77
2023/05/18 10:12:53;;;;;;;7.53;3.13;;;;;;;16.28;50.41;98657.59;5097256;28;20204;-77
2023/05/18 10:15:24;;;;;;;6.53;3.07;;;;;;;16.44;51.01;98656.81;5096932;28;20242;-77
2023/05/18 10:17:53;;;;;;;7.27;3.10;;;;;;;16.48;52.78;98653.41;5096913;28;20195;-77
2023/05/18 10:20:23;;;;;;;10.40;3.30;;;;;;;16.72;51.47;98654.91;5096696;28;20200;-77
2023/05/18 10:22:50;;;;;;;7.67;3.10;;;;;;;16.73;51.10;98658.41;5096852;28;20647;-77
2023/05/18 10:25:19;;;;;;;8.00;3.00;;;;;;;16.36;51.91;98649.94;5096485;28;20211;-77
2023/05/18 10:27:49;;;;;;;4.33;2.70;;;;;;;16.21;51.61;98651.53;5096695;28;20206;-77
2023/05/18 10:30:16;;;;;;;5.83;2.80;;;;;;;15.79;50.75;98648.28;5096558;28;20204;-77
2023/05/18 10:32:44;;;;;;;6.30;3.07;;;;;;;16.36;52.98;98647.25;5096267;28;20211;-77
2023/05/18 10:35:11;;;;;;;9.77;3.20;;;;;;;16.46;48.49;98644.00;5096204;28;20227;-77
2023/05/18 10:37:41;;;;;;;8.30;2.97;;;;;;;16.41;48.69;98654.59;5095892;28;20218;-77
2023/05/18 10:40:10;;;;;;;9.40;2.63;;;;;;;16.53;46.63;98648.13;5096352;28;20207;-77
2023/05/18 10:42:37;;;;;;;5.67;2.77;;;;;;;16.86;48.82;98653.53;5096155;28;20208;-77
2023/05/18 10:45:06;;;;;;;6.40;2.87;;;;;;;16.98;48.29;98643.53;5096251;28;20206;-78
2023/05/18 10:47:34;;;;;;;6.60;3.00;;;;;;;17.05;46.53;98638.78;5096359;28;20230;-77
2023/05/18 10:50:03;;;;;;;6.37;2.80;;;;;;;16.83;48.81;98637.09;5096147;28;20590;-77
2023/05/18 10:52:32;;;;;;;7.43;2.83;;;;;;;17.10;47.61;98630.00;5096444;28;20235;-77
2023/05/18 10:54:59;;;;;;;6.63;2.77;;;;;;;16.79;45.75;98634.06;5096325;28;20224;-77
2023/05/18 10:57:34;;;;;;;6.53;3.23;;;;;;;17.21;49.63;98643.31;5096584;28;20293;-77
2023/05/18 11:00:00;;;;;;;6.57;2.80;;;;;;;17.12;46.06;98634.06;5095850;28;20639;-77
2023/05/18 11:02:27;;;;;;;5.47;2.70;;;;;;;17.11;44.61;98628.94;5095805;28;20290;-77
2023/05/18 11:04:55;;;;;;;5.60;2.73;;;;;;;17.57;45.04;98623.13;5096629;28;20204;-77
2023/05/18 11:07:22;;;;;;;6.80;2.80;;;;;;;17.64;50.00;98626.47;5095743;28;20273;-77
2023/05/18 11:09:49;;;;;;;9.77;3.40;;;;;;;17.21;46.67;98637.94;5095771;28;20200;-77
2023/05/18 11:12:18;;;;;;;7.20;2.33;;;;;;;17.05;47.46;98628.03;5095844;28;20208;-77
2023/05/18 11:14:53;;;;;;;5.23;2.37;;;;;;;16.31;49.04;98628.38;5095813;28;20227;-78
2023/05/18 11:17:30;;;;;;;8.57;3.17;;;;;;;16.58;49.98;98631.28;5095884;28;20231;-77
2023/05/18 11:20:06;;;;;;;7.70;2.73;;;;;;;16.91;51.52;98632.13;5095514;28;20195;-77
2023/05/18 11:22:58;;;;;;;8.60;2.97;;;;;;;16.77;48.96;98628.13;5095445;28;20708;-77
2023/05/18 11:25:24;;;;;;;5.87;2.83;;;;;;;16.81;49.81;98615.03;5095254;28;20223;-77
2023/05/18 11:27:52;;;;;;;7.27;2.60;;;;;;;17.05;49.87;98611.13;5095669;28;20204;-77
2023/05/18 11:30:29;;;;;;;7.27;3.00;;;;;;;17.21;46.81;98612.94;5095481;28;20200;-77
2023/05/18 11:33:08;;;;;;;13.10;2.57;;;;;;;16.99;44.50;98614.75;5094730;28;20708;-77
2023/05/18 11:35:53;;;;;;;5.57;2.57;;;;;;;16.96;45.75;98617.97;5094963;28;20589;-77
2023/05/18 11:38:20;;;;;;;4.43;2.50;;;;;;;17.21;48.96;98612.94;5094891;28;20188;-77